This is the latest recevied weather packets stored in our database for station/object JG6YPS-13. If no packets are shown the sender has not sent any weather packets the latest 10 day(s).
| Time | Temp. | Humidity | Pressure | Rain* | Wind** | Luminosity | Snow |
|---|---|---|---|---|---|---|---|
| 1778051765 | 24.44° C | 60% | 1015.8 hPa | 0 mm | - | - | - |
| 1778051165 | 25° C | 58% | 1015.9 hPa | 0 mm | - | - | - |
| 1778050565 | 25° C | 57% | 1015.9 hPa | 0 mm | - | - | - |
| 1778049965 | 25° C | 57% | 1016 hPa | 0 mm | - | - | - |
| 1778049366 | 25.56° C | 56% | 1016.1 hPa | 0 mm | - | - | - |
| 1778048766 | 26.67° C | 53% | 1016.1 hPa | 0 mm | - | - | - |
| 1778048165 | 26.67° C | 54% | 1016.2 hPa | 0 mm | - | - | - |
| 1778047565 | 26.11° C | 57% | 1016.3 hPa | 0 mm | - | - | - |
| 1778046965 | 25.56° C | 55% | 1016.1 hPa | 0 mm | - | - | - |
| 1778046365 | 25.56° C | 56% | 1016 hPa | 0 mm | - | - | - |
| 1778045765 | 26.11° C | 54% | 1015.9 hPa | 0 mm | - | - | - |
| 1778045165 | 26.11° C | 54% | 1016.1 hPa | 0 mm | - | - | - |
| 1778044565 | 26.67° C | 52% | 1016.2 hPa | 0 mm | - | - | - |
| 1778043964 | 27.22° C | 53% | 1016.1 hPa | 0 mm | - | - | - |
| 1778043364 | 26.11° C | 56% | 1016.4 hPa | 0 mm | - | - | - |
| 1778042764 | 25.56° C | 56% | 1016.2 hPa | 0 mm | - | - | - |
| 1778042164 | 26.11° C | 55% | 1016.5 hPa | 0 mm | - | - | - |
| 1778041564 | 26.11° C | 53% | 1016.3 hPa | 0 mm | - | - | - |
| 1778040964 | 27.22° C | 53% | 1016.3 hPa | 0 mm | - | - | - |
| 1778040364 | 26.11° C | 56% | 1016.5 hPa | 0 mm | - | - | - |
| 1778039764 | 26.11° C | 54% | 1016.9 hPa | 0 mm | - | - | - |
| 1778039164 | 24.44° C | 58% | 1017 hPa | 0 mm | - | - | - |
| 1778038564 | 24.44° C | 58% | 1017 hPa | 0 mm | - | - | - |
| 1778037964 | 24.44° C | 58% | 1017.3 hPa | 0 mm | - | - | - |
| 1778037364 | 23.89° C | 60% | 1017.2 hPa | 0 mm | - | - | - |
* Rain latest hour (hover to see other rain measurements)
** Current wind speed in m/s (hover to see current wind gust speed)